Weather History for Thomson, GA

Change the Weather History Date:

Saturday, February 2, 2013

  Actual Average (KDBN) Record (KDBN)
Temperature  
Mean Temperature 36 °F -  
Max Temperature 55 °F 62 °F 81 °F (1950)
Min Temperature 18 °F 36 °F 15 °F (1980)
Degree Days  
Heating Degree Days 28    
Moisture  
Dew Point 23 °F    
Average Humidity 64    
Maximum Humidity 100    
Minimum Humidity 26    
Precipitation  
Precipitation 0.00 in - - ()
Sea Level Pressure  
Sea Level Pressure 30.30 in    
Wind  
Wind Speed 1 mph (WSW)    
Max Wind Speed 12 mph    
Max Gust Speed 23 mph    
Visibility 10 miles    
Events      
Averages and records for this station are not official NWS values.
T = Trace of Precipitation, MM = Missing Value Source: NWS Daily Summary

Daily Weather History Graph

Daily Weather History Graph

Search for Another Location

Airport:

Trip Planner

Search our weather history database for the weather conditions in past years. The results will help you decide how hot, cold, wet, or windy it might be!

Date:

Astronomy

Feb. 02, 2013 Rise Set
Actual Time 7:25 AM EST 6:02 PM EST
Civil Twilight 6:59 AM EST 6:28 PM EST
Nautical Twilight 6:29 AM EST 6:58 PM EST
Astronomical Twilight 6:00 AM EST 7:27 PM EST
Moon No Moon Rise 10:57 AM EST (2/2)
Length of Visible Light 11h 29m
Length of Day
10h 37m
Waning Gibbous, 60% of the Moon is Illuminated
Feb 2
Waning Gibbous
Feb 3
Last Quarter
Feb 10
New
Feb 17
First Quarter
Feb 25
Full

Hourly Weather History & Observations

Time (EST) Temp. Windchill Dew Point Humidity Pressure Visibility Wind Dir Wind Speed Gust Speed Precip Events Conditions
12:15 AM 25.7 °F - 17.4 °F 71% 30.41 in 10.0 mi Calm Calm - N/A   Clear
12:35 AM 25.5 °F - 18.9 °F 76% 30.41 in 10.0 mi Calm Calm - N/A   Clear
12:55 AM 25.2 °F - 18.7 °F 76% 30.40 in 10.0 mi Calm Calm - N/A   Clear
1:15 AM 23.7 °F - 19.0 °F 82% 30.41 in 10.0 mi Calm Calm - N/A   Clear
1:35 AM 24.1 °F - 19.4 °F 82% 30.40 in 10.0 mi Calm Calm - N/A   Clear
1:55 AM 23.4 °F - 18.7 °F 82% 30.40 in 10.0 mi Calm Calm - N/A   Clear
2:15 AM 22.8 °F - 19.8 °F 88% 30.40 in 10.0 mi Calm Calm - N/A   Clear
2:35 AM 23.0 °F - 18.9 °F 84% 30.40 in 10.0 mi Calm Calm - N/A   Clear
2:55 AM 21.9 °F - 19.4 °F 90% 30.40 in 10.0 mi Calm Calm - N/A   Clear
3:15 AM 22.5 °F - 19.4 °F 88% 30.41 in 10.0 mi Calm Calm - N/A   Clear
3:35 AM 21.7 °F - 19.9 °F 93% 30.40 in 10.0 mi Calm Calm - N/A   Clear
3:55 AM 21.9 °F - 19.8 °F 91% 30.40 in 10.0 mi Calm Calm - N/A   Clear
4:15 AM 21.9 °F - 19.8 °F 91% 30.39 in 10.0 mi Calm Calm - N/A   Clear
4:35 AM 21.6 °F - 19.6 °F 92% 30.39 in 10.0 mi Calm Calm - N/A   Clear
4:55 AM 20.5 °F - 19.2 °F 95% 30.39 in 10.0 mi Calm Calm - N/A   Clear
5:15 AM 20.8 °F - 19.2 °F 93% 30.39 in 10.0 mi Calm Calm - N/A   Clear
5:35 AM 20.7 °F - 18.5 °F 91% 30.39 in 10.0 mi Calm Calm - N/A   Clear
5:55 AM 20.3 °F - 18.9 °F 94% 30.39 in 10.0 mi Calm Calm - N/A   Clear
6:15 AM 19.9 °F - 19.2 °F 97% 30.39 in 10.0 mi Calm Calm - N/A   Clear
6:35 AM 19.8 °F - 19.2 °F 98% 30.40 in 10.0 mi Calm Calm - N/A   Clear
6:55 AM 19.4 °F - 18.9 °F 98% 30.40 in 10.0 mi Calm Calm - N/A   Clear
7:15 AM 19.4 °F - 19.2 °F 99% 30.39 in 10.0 mi Calm Calm - N/A   Clear
7:35 AM 18.5 °F - 18.5 °F 100% 30.41 in 10.0 mi Calm Calm - N/A   Clear
7:55 AM 19.9 °F - 19.8 °F 99% 30.41 in 10.0 mi Calm Calm - N/A   Clear
8:15 AM 22.6 °F - 21.2 °F 94% 30.41 in 10.0 mi Calm Calm - N/A   Clear
8:35 AM 25.3 °F - 20.3 °F 81% 30.41 in 10.0 mi Calm Calm - N/A   Clear
8:55 AM 27.7 °F - 19.0 °F 70% 30.41 in 10.0 mi Calm Calm - N/A   Clear
9:15 AM 30.4 °F - 20.8 °F 68% 30.41 in 10.0 mi Calm Calm - N/A   Clear
9:35 AM 32.4 °F - 20.8 °F 63% 30.39 in 10.0 mi Calm Calm - N/A   Clear
9:55 AM 34.3 °F - 19.4 °F 54% 30.39 in 10.0 mi Calm Calm - N/A   Clear
10:15 AM 36.7 °F 34.1 °F 19.6 °F 50% 30.38 in 10.0 mi South 3.5 mph - N/A   Clear
10:35 AM 39.9 °F - 19.0 °F 43% 30.38 in 10.0 mi Calm Calm - N/A   Clear
10:55 AM 41.0 °F 38.0 °F 17.1 °F 38% 30.38 in 10.0 mi South 4.6 mph - N/A   Clear
11:15 AM 43.0 °F - 18.9 °F 38% 30.36 in 10.0 mi Calm Calm - N/A   Clear
11:35 AM 43.3 °F 41.7 °F 16.5 °F 34% 30.35 in 10.0 mi South 3.5 mph - N/A   Clear
11:55 AM 44.8 °F 40.4 °F 16.9 °F 33% 30.34 in 10.0 mi South 8.1 mph - N/A   Clear
12:15 PM 47.5 °F - 18.0 °F 31% 30.32 in 10.0 mi SSE 6.9 mph - N/A   Clear
12:35 PM 48.4 °F - 17.1 °F 29% 30.30 in 10.0 mi SSW 3.5 mph - N/A   Clear
12:55 PM 49.5 °F - 17.2 °F 28% 30.29 in 10.0 mi SSW 4.6 mph - N/A   Clear
1:15 PM 50.9 °F - 18.1 °F 27% 30.28 in 10.0 mi Calm Calm - N/A   Clear
1:35 PM 51.3 °F - 18.0 °F 27% 30.27 in 10.0 mi West 5.8 mph - N/A   Clear
1:55 PM 51.8 °F - 18.7 °F 27% 30.26 in 10.0 mi WSW 6.9 mph - N/A   Clear
2:15 PM 53.6 °F - 19.2 °F 26% 30.25 in 10.0 mi Calm Calm - N/A   Clear
2:35 PM 53.4 °F - 18.9 °F 26% 30.24 in 10.0 mi NW 5.8 mph - N/A   Clear
2:55 PM 54.0 °F - 19.9 °F 26% 30.23 in 10.0 mi WNW 5.8 mph - N/A   Clear
3:15 PM 54.5 °F - 20.7 °F 27% 30.22 in 10.0 mi SW 6.9 mph - N/A   Clear
3:35 PM 55.0 °F - 21.2 °F 27% 30.22 in 10.0 mi West 6.9 mph - N/A   Clear
3:55 PM 55.4 °F - 21.9 °F 27% 30.21 in 10.0 mi West 6.9 mph - N/A   Clear
4:15 PM 55.0 °F - 21.4 °F 27% 30.20 in 10.0 mi SSW 5.8 mph - N/A   Clear
4:35 PM 54.7 °F - 22.3 °F 28% 30.20 in 10.0 mi WSW 4.6 mph - N/A   Clear
4:55 PM 54.5 °F - 23.0 °F 29% 30.19 in 10.0 mi SW 3.5 mph - N/A   Clear
5:15 PM 52.7 °F - 23.5 °F 32% 30.19 in 10.0 mi West 6.9 mph - N/A   Clear
5:35 PM 52.0 °F - 23.7 °F 33% 30.18 in 10.0 mi SW 4.6 mph - N/A   Clear
5:55 PM 49.1 °F - 24.3 °F 38% 30.18 in 10.0 mi WSW 3.5 mph - N/A   Clear
6:15 PM 47.8 °F - 23.9 °F 39% 30.17 in 10.0 mi Calm Calm - N/A   Clear
6:35 PM 45.0 °F - 24.1 °F 44% 30.16 in 10.0 mi Calm Calm - N/A   Clear
6:55 PM 42.8 °F - 26.4 °F 52% 30.17 in 10.0 mi Calm Calm - N/A   Mostly Cloudy
7:15 PM 42.1 °F - 28.4 °F 58% 30.19 in 10.0 mi Calm Calm - N/A   Overcast
7:35 PM 41.5 °F - 28.8 °F 60% 30.19 in 10.0 mi Calm Calm - N/A   Overcast
7:55 PM 41.5 °F 38.6 °F 30.6 °F 65% 30.20 in 10.0 mi West 4.6 mph - N/A   Overcast
8:15 PM 42.6 °F 39.0 °F 29.5 °F 60% 30.20 in 10.0 mi West 5.8 mph - N/A   Overcast
8:35 PM 47.5 °F - 28.8 °F 48% 30.20 in 10.0 mi WNW 5.8 mph - N/A   Overcast
8:55 PM 47.5 °F - 36.0 °F 64% 30.21 in 10.0 mi WSW 11.5 mph 23.0 mph N/A   Overcast
9:15 PM 45.7 °F 40.6 °F 38.3 °F 75% 30.21 in 10.0 mi WNW 10.4 mph - N/A   Overcast
9:55 PM 43.3 °F 41.7 °F 40.1 °F 88% 30.19 in 10.0 mi West 3.5 mph - N/A   Overcast
10:15 PM 42.8 °F 40.1 °F 40.3 °F 91% 30.18 in 10.0 mi West 4.6 mph - N/A   Mostly Cloudy
10:35 PM 41.4 °F 39.4 °F 40.3 °F 96% 30.18 in 10.0 mi West 3.5 mph - N/A   Mostly Cloudy
10:55 PM 42.1 °F - 40.3 °F 93% 30.17 in 10.0 mi Calm Calm - N/A   Overcast
11:15 PM 41.9 °F - 41.0 °F 97% 30.16 in 10.0 mi Calm Calm - N/A   Overcast
11:35 PM 41.9 °F - 41.9 °F 100% 30.15 in 10.0 mi Calm Calm - N/A   Overcast